California City, California
Current Conditions -  °F | °C
As of 7:35 PM on Friday 19 Dec 2014 (Local Time) from KMHV Reporting Station
Clear Clear  
Wind Chill: 50°   Ceiling: Unl
Heat Index: 50°   Visibility: 10mi
Dew Point: 30°   Wind: 17mph
Humidity: 47%   Direction: 250°WSW
Pressure: 30.16"   Gusts: NA
Location:  35.13°N, 117.98°W
Report Text: KMHV 200335Z AUTO 25015KT 10SM CLR 10/M01 A3016 RMK AO1
Loading
Personal Weather Stations






























Interactive Weather Map New forecast layout! Learn more

10-Day Weather Forecast

Advertisements
Track Severe Weather on mobile